Time;durP1;ratioP1;P1;durP2;ratioP2;P2;SDS_P1;SDS_P2;PMS_P1;PMS_P2;Temp;Humidity;BMP_temperature;BMP_pressure;BME280_temperature;BME280_humidity;BME280_pressure;Samples;Min_cycle;Max_cycle;Signal;HPM_P1;HPM_P2
2021/08/17 00:00:44;;;;;;;7.23;4.07;;;12.60;99.90;;;13.80;100.00;98433.09;5015585;28;21030;-80
2021/08/17 00:03:18;;;;;;;9.80;4.50;;;12.60;99.90;;;13.70;100.00;98444.00;5020718;28;20466;-80
2021/08/17 00:05:48;;;;;;;10.80;3.40;;;12.50;99.90;;;13.70;100.00;98441.38;5017411;28;21600;-80
2021/08/17 00:08:17;;;;;;;8.63;4.00;;;12.50;99.90;;;13.73;100.00;98440.16;5017266;28;20589;-80
2021/08/17 00:10:46;;;;;;;13.50;3.83;;;12.60;99.90;;;13.68;100.00;98440.75;5020729;28;20477;-80
2021/08/17 00:13:20;;;;;;;6.03;3.37;;;12.50;99.90;;;13.65;100.00;98450.84;5020481;28;20971;-80
2021/08/17 00:15:54;;;;;;;7.47;4.33;;;12.40;99.90;;;13.67;100.00;98446.22;5019808;28;20478;-80
2021/08/17 00:18:28;;;;;;;9.53;3.70;;;12.40;99.90;;;13.66;100.00;98440.13;5020011;28;20475;-80
2021/08/17 00:20:58;;;;;;;11.57;4.43;;;12.40;99.90;;;13.57;100.00;98442.13;5018706;28;20498;-80
2021/08/17 00:23:32;;;;;;;9.00;3.60;;;12.30;99.90;;;13.55;100.00;98441.50;5013061;28;20461;-80
2021/08/17 00:26:01;;;;;;;8.37;3.87;;;12.30;99.90;;;13.53;100.00;98438.28;5013884;28;20799;-80
2021/08/17 00:28:50;;;;;;;10.80;5.80;;;12.40;99.90;;;13.50;100.00;98436.03;5016705;28;20714;-80
2021/08/17 00:31:27;;;;;;;7.33;3.70;;;12.30;99.90;;;13.45;100.00;98440.25;5021907;28;20470;-80
2021/08/17 00:34:13;;;;;;;9.53;3.57;;;12.20;99.90;;;13.39;100.00;98436.59;5021428;28;20466;-80
2021/08/17 00:37:04;;;;;;;9.20;4.00;;;12.10;99.90;;;13.40;100.00;98437.38;5017137;28;20470;-80
2021/08/17 00:39:37;;;;;;;8.40;3.70;;;12.10;99.90;;;13.31;100.00;98436.75;5019464;28;20513;-80
2021/08/17 00:42:10;;;;;;;5.70;3.40;;;12.00;99.90;;;13.28;100.00;98434.53;5019413;28;20470;-81
2021/08/17 00:44:40;;;;;;;7.60;3.53;;;12.00;99.90;;;13.23;100.00;98431.66;5016736;28;20910;-80
2021/08/17 00:47:29;;;;;;;5.90;4.10;;;12.10;99.90;;;13.19;100.00;98438.28;5027611;28;20915;-81
2021/08/17 00:50:09;;;;;;;9.10;4.30;;;11.90;99.90;;;13.15;100.00;98428.38;5022770;28;20831;-80
2021/08/17 00:52:48;;;;;;;6.40;3.70;;;12.00;99.90;;;13.15;100.00;98429.19;5015812;28;20470;-80
2021/08/17 00:55:19;;;;;;;8.60;4.03;;;11.90;99.90;;;13.17;100.00;98427.19;5025137;28;20469;-81
2021/08/17 00:57:54;;;;;;;8.70;4.27;;;11.90;99.90;;;13.10;100.00;98418.47;5014755;28;20471;-80
2021/08/17 01:00:30;;;;;;;13.80;4.63;;;11.90;99.90;;;13.03;100.00;98410.50;5015467;28;20567;-80
2021/08/17 01:03:00;;;;;;;6.07;4.00;;;11.80;99.90;;;13.05;100.00;98410.34;5020057;28;20689;-80
2021/08/17 01:05:31;;;;;;;5.80;4.20;;;11.90;99.90;;;13.03;100.00;98409.69;5017371;28;20619;-80
2021/08/17 01:08:10;;;;;;;11.80;5.30;;;11.90;99.90;;;13.03;100.00;98409.69;5015823;28;20485;-80
2021/08/17 01:10:42;;;;;;;12.30;5.23;;;11.90;99.90;;;12.94;100.00;98397.75;5020843;28;20608;-80
2021/08/17 01:13:15;;;;;;;9.37;5.50;;;11.80;99.90;;;12.96;100.00;98398.34;5025522;28;20466;-80
2021/08/17 01:15:44;;;;;;;15.07;4.60;;;11.80;99.90;;;12.95;100.00;98404.59;5016963;28;20556;-80
2021/08/17 01:18:15;;;;;;;9.03;4.43;;;11.90;99.90;;;12.90;100.00;98407.00;5022730;28;20954;-80
2021/08/17 01:23:53;;;;;;;11.00;5.33;;;11.80;99.90;;;12.92;100.00;98418.09;5020877;28;20466;-80
2021/08/17 01:26:28;;;;;;;9.90;5.20;;;11.80;99.90;;;12.82;100.00;98417.63;5012734;28;20482;-81
2021/08/17 01:28:59;;;;;;;6.93;4.63;;;11.70;99.90;;;12.88;100.00;98422.13;5019305;28;20523;-80
2021/08/17 01:31:41;;;;;;;9.40;4.53;;;11.80;99.90;;;12.86;100.00;98432.81;5016784;28;20474;-80
2021/08/17 01:34:13;;;;;;;8.77;4.90;;;11.90;99.90;;;12.83;100.00;98432.41;5024228;28;20964;-81
2021/08/17 01:36:43;;;;;;;12.77;4.70;;;11.80;99.90;;;12.84;100.00;98436.66;5013883;28;20494;-81
2021/08/17 01:39:13;;;;;;;12.27;5.57;;;11.80;99.90;;;12.83;100.00;98440.25;5027452;28;20922;-80
2021/08/17 01:41:51;;;;;;;14.83;5.70;;;11.80;99.90;;;12.83;100.00;98440.25;5021216;28;20609;-80
2021/08/17 01:44:29;;;;;;;11.57;5.30;;;11.70;99.90;;;12.81;100.00;98442.25;5012261;28;20906;-81
2021/08/17 01:49:55;;;;;;;14.40;5.60;;;11.70;99.90;;;12.84;100.00;98447.16;5015229;28;20537;-81
2021/08/17 01:52:48;;;;;;;20.43;5.20;;;11.70;99.90;;;12.77;100.00;98448.91;5019014;28;20482;-81
2021/08/17 01:55:21;;;;;;;10.50;4.93;;;11.60;99.90;;;12.75;100.00;98445.66;5024189;28;20470;-80
2021/08/17 01:57:51;;;;;;;8.63;4.60;;;11.60;99.90;;;12.79;100.00;98449.53;5022048;28;21053;-80
2021/08/17 02:00:24;;;;;;;13.07;5.80;;;11.60;99.90;;;12.76;100.00;98444.66;5013651;28;20494;-80
2021/08/17 02:02:57;;;;;;;9.17;4.73;;;11.50;99.90;;;12.71;100.00;98447.03;5024401;28;21090;-80
2021/08/17 02:05:26;;;;;;;13.70;5.67;;;11.50;99.90;;;12.63;100.00;98451.41;5021857;28;20466;-81
2021/08/17 02:07:56;;;;;;;14.07;5.90;;;11.40;99.90;;;12.69;100.00;98446.41;5018157;28;20485;-80
2021/08/17 02:10:27;;;;;;;12.40;5.90;;;11.50;99.90;;;12.69;100.00;98449.03;5020735;28;20470;-80
2021/08/17 02:13:01;;;;;;;10.17;4.60;;;11.50;99.90;;;12.63;100.00;98440.91;5016308;28;20492;-81
2021/08/17 02:15:31;;;;;;;7.10;4.80;;;11.40;99.90;;;12.67;100.00;98446.59;5012934;28;20474;-80
2021/08/17 02:17:59;;;;;;;18.83;6.30;;;11.50;99.90;;;12.70;100.00;98442.81;5023160;28;20469;-80
2021/08/17 02:20:29;;;;;;;11.60;5.43;;;11.50;99.90;;;12.65;100.00;98447.78;5013154;28;20999;-80
2021/08/17 02:22:58;;;;;;;11.13;6.07;;;11.50;99.90;;;12.63;100.00;98450.63;5014057;28;20533;-80
2021/08/17 02:25:48;;;;;;;15.77;6.17;;;11.50;99.90;;;12.61;100.00;98450.81;5025486;28;20473;-80
2021/08/17 02:28:19;;;;;;;11.23;5.30;;;11.60;99.90;;;12.63;100.00;98455.06;5015559;28;20554;-80
2021/08/17 02:31:35;;;;;;;11.50;5.20;;;11.60;99.90;;;12.56;100.00;98458.41;5019912;28;20462;-80
2021/08/17 02:34:22;;;;;;;11.30;6.00;;;11.50;99.90;;;12.53;100.00;98464.03;5016974;28;20537;-80
2021/08/17 02:37:00;;;;;;;12.00;6.10;;;11.40;99.90;;;12.54;100.00;98460.44;5018068;28;20466;-81
2021/08/17 02:39:56;;;;;;;17.23;6.80;;;11.50;99.90;;;12.51;100.00;98460.00;5028063;28;20822;-80
2021/08/17 02:42:37;;;;;;;11.73;5.70;;;11.40;99.90;;;12.49;100.00;98457.56;5021854;28;20472;-80
2021/08/17 02:45:12;;;;;;;13.60;5.40;;;11.40;99.90;;;12.50;100.00;98459.19;5023608;28;20469;-81
2021/08/17 02:48:02;;;;;;;10.60;5.70;;;11.50;99.90;;;12.49;100.00;98454.13;5025744;28;20473;-80
2021/08/17 02:50:47;;;;;;;10.23;5.63;;;11.30;99.90;;;12.45;100.00;98453.69;5020273;28;20547;-80
2021/08/17 02:53:17;;;;;;;14.50;6.37;;;11.20;99.90;;;12.51;100.00;98452.13;5014982;28;20474;-79
2021/08/17 02:55:53;;;;;;;18.97;6.77;;;11.40;99.90;;;12.50;100.00;98453.94;5018403;28;20561;-80
2021/08/17 02:58:29;;;;;;;11.63;6.80;;;11.50;99.90;;;12.50;100.00;98453.94;5019954;28;20572;-80
2021/08/17 03:01:07;;;;;;;15.70;7.10;;;11.50;99.90;;;12.52;100.00;98441.47;5021611;28;20494;-81
2021/08/17 03:07:11;;;;;;;12.30;6.97;;;11.50;99.90;;;12.48;100.00;98442.84;5017946;28;20473;-81
2021/08/17 03:10:18;;;;;;;15.90;7.07;;;11.50;99.90;;;12.43;100.00;98434.69;5013664;28;20587;-80
2021/08/17 03:12:50;;;;;;;14.40;7.90;;;11.60;99.90;;;12.42;100.00;98440.16;5027878;28;20466;-81
2021/08/17 03:15:21;;;;;;;13.53;7.90;;;11.50;99.90;;;12.42;100.00;98435.72;5021943;28;20470;-80
2021/08/17 03:17:52;;;;;;;13.20;6.80;;;11.40;99.90;;;12.45;100.00;98437.97;5019411;28;20469;-80
2021/08/17 03:20:30;;;;;;;18.30;7.60;;;11.40;99.90;;;12.46;100.00;98438.78;5022440;28;20478;-80
2021/08/17 03:23:09;;;;;;;13.70;7.30;;;11.40;99.90;;;12.42;100.00;98440.97;5023683;28;20461;-80
2021/08/17 03:25:38;;;;;;;17.30;8.03;;;11.40;99.90;;;12.43;100.00;98444.38;5018671;28;20465;-80
2021/08/17 03:28:08;;;;;;;13.07;7.87;;;11.40;99.90;;;12.47;100.00;98446.44;5025678;28;20467;-80
2021/08/17 03:30:41;;;;;;;15.70;8.07;;;11.40;99.90;;;12.42;100.00;98451.47;5023012;28;20466;-80
2021/08/17 03:33:19;;;;;;;14.73;7.33;;;11.40;99.90;;;12.44;100.00;98446.00;5018845;28;20466;-80
2021/08/17 03:35:52;;;;;;;12.40;7.53;;;11.40;99.90;;;12.45;100.00;98448.47;5020174;28;20542;-81
2021/08/17 03:38:23;;;;;;;17.73;7.83;;;11.40;99.90;;;12.42;100.00;98448.84;5015000;28;20486;-80
2021/08/17 03:40:53;;;;;;;18.20;7.83;;;11.30;99.90;;;12.41;100.00;98454.25;5022020;28;20497;-81
2021/08/17 03:43:25;;;;;;;30.53;9.17;;;11.30;99.90;;;12.37;100.00;98443.34;5023859;28;20469;-80
2021/08/17 03:46:04;;;;;;;15.97;7.07;;;11.30;99.90;;;12.38;100.00;98452.03;5016325;28;20911;-80
2021/08/17 03:48:50;;;;;;;15.20;7.77;;;11.30;99.90;;;12.38;100.00;98462.50;5017972;28;21230;-80
2021/08/17 03:51:20;;;;;;;16.30;8.87;;;11.30;99.90;;;12.36;100.00;98460.06;5015887;28;20843;-80
2021/08/17 03:53:52;;;;;;;16.57;8.30;;;11.30;99.90;;;12.32;100.00;98458.81;5022525;28;20472;-81
2021/08/17 03:56:22;;;;;;;13.60;7.20;;;11.40;99.90;;;12.35;100.00;98458.47;5021307;28;20463;-80
2021/08/17 03:58:51;;;;;;;20.40;8.10;;;11.30;99.90;;;12.33;100.00;98457.00;5021271;28;20552;-81
2021/08/17 04:01:21;;;;;;;15.47;8.07;;;11.30;99.90;;;12.33;100.00;98460.44;5018753;28;20497;-80
2021/08/17 04:03:52;;;;;;;19.53;8.07;;;11.20;99.90;;;12.33;100.00;98457.00;5029556;28;20466;-81
2021/08/17 04:06:23;;;;;;;12.90;7.50;;;11.20;99.90;;;12.33;100.00;98464.88;5018972;28;20466;-80
2021/08/17 04:08:54;;;;;;;20.70;8.20;;;11.20;99.90;;;12.28;100.00;98454.16;5018083;28;20487;-81
2021/08/17 04:11:24;;;;;;;15.40;8.73;;;11.10;99.90;;;12.27;100.00;98461.19;5020506;28;20520;-81
2021/08/17 04:13:56;;;;;;;12.93;7.30;;;11.20;99.90;;;12.24;100.00;98464.19;5019627;28;20477;-82
2021/08/17 04:16:38;;;;;;;15.57;8.47;;;11.20;99.90;;;12.21;100.00;98467.19;5022158;28;20477;-81
2021/08/17 04:19:09;;;;;;;13.67;7.47;;;11.20;99.90;;;12.19;100.00;98461.31;5019007;28;20550;-79
2021/08/17 04:21:42;;;;;;;16.87;8.13;;;11.10;99.90;;;12.19;100.00;98463.94;5021292;28;20944;-82
2021/08/17 04:24:11;;;;;;;16.60;9.07;;;11.20;99.90;;;12.20;100.00;98465.56;5023190;28;20512;-80
2021/08/17 04:26:41;;;;;;;20.80;9.80;;;11.20;99.90;;;12.22;100.00;98468.78;5023602;28;20477;-80
2021/08/17 04:29:10;;;;;;;16.67;9.47;;;11.10;99.90;;;12.21;100.00;98469.81;5022640;28;20462;-80
2021/08/17 04:31:53;;;;;;;12.17;7.60;;;11.10;99.90;;;12.23;100.00;98465.19;5024230;28;20500;-80
2021/08/17 04:34:23;;;;;;;19.17;9.00;;;11.20;99.90;;;12.23;100.00;98467.00;5023090;28;20466;-79
2021/08/17 04:36:53;;;;;;;17.70;8.63;;;11.10;99.90;;;12.11;100.00;98456.22;5017848;28;20902;-80
2021/08/17 04:39:49;;;;;;;23.83;10.20;;;11.20;99.90;;;12.14;100.00;98455.00;5018073;28;20463;-80
2021/08/17 04:42:19;;;;;;;16.33;8.50;;;11.10;99.90;;;12.16;100.00;98464.31;5018422;28;20498;-79
2021/08/17 04:44:51;;;;;;;14.07;8.27;;;11.10;99.90;;;12.17;100.00;98467.75;5024160;28;21072;-80
2021/08/17 04:47:21;;;;;;;19.40;8.07;;;11.20;99.90;;;12.14;100.00;98466.31;5017594;28;20470;-79
2021/08/17 04:49:52;;;;;;;16.33;8.23;;;11.10;99.90;;;12.04;100.00;98461.34;5025746;28;20474;-79
2021/08/17 04:52:22;;;;;;;19.70;9.30;;;11.10;99.90;;;12.06;100.00;98459.38;5022244;28;20921;-79
2021/08/17 04:54:51;;;;;;;18.50;8.77;;;11.00;99.90;;;12.03;100.00;98467.63;5014237;28;21026;-79
2021/08/17 04:57:21;;;;;;;20.10;8.33;;;11.00;99.90;;;12.07;100.00;98479.34;5026343;28;20474;-79
2021/08/17 04:59:53;;;;;;;14.53;8.30;;;11.00;99.90;;;12.02;100.00;98478.28;5019432;28;20834;-79
2021/08/17 05:02:29;;;;;;;19.90;9.63;;;11.00;99.90;;;12.01;100.00;98477.47;5026179;28;20616;-79
2021/08/17 05:05:00;;;;;;;20.40;9.73;;;10.90;99.90;;;12.06;100.00;98487.41;5017482;28;20504;-79
2021/08/17 05:07:29;;;;;;;24.87;8.87;;;11.00;99.90;;;12.10;100.00;98480.78;5014956;28;20470;-79
2021/08/17 05:10:00;;;;;;;23.73;10.27;;;11.10;99.90;;;12.14;100.00;98492.53;5023696;28;20501;-79
2021/08/17 05:12:30;;;;;;;17.63;9.50;;;11.30;99.90;;;12.22;100.00;98492.41;5029614;28;20549;-79
2021/08/17 05:14:59;;;;;;;20.10;8.87;;;11.30;99.90;;;12.24;100.00;98479.13;5011532;28;20474;-79
2021/08/17 05:17:44;;;;;;;18.13;9.30;;;11.30;99.90;;;12.30;100.00;98481.78;5021782;28;20553;-79
2021/08/17 05:20:15;;;;;;;28.90;10.67;;;11.40;99.90;;;12.37;100.00;98482.69;5031079;28;20566;-79
2021/08/17 05:22:46;;;;;;;22.20;11.30;;;11.40;99.90;;;12.39;100.00;98495.63;5028892;28;20498;-79
2021/08/17 05:25:16;;;;;;;22.43;11.07;;;11.40;99.90;;;12.44;100.00;98496.66;5024351;28;20529;-79
2021/08/17 05:27:50;;;;;;;27.10;11.30;;;11.50;99.90;;;12.46;100.00;98506.97;5033294;28;20461;-79
2021/08/17 05:30:24;;;;;;;26.73;11.43;;;11.50;99.90;;;12.51;100.00;98507.22;5033568;28;20477;-79
2021/08/17 05:32:59;;;;;;;30.20;12.67;;;11.60;99.90;;;12.55;100.00;98501.41;5028099;28;20549;-79
2021/08/17 05:35:31;;;;;;;23.80;11.83;;;11.60;99.90;;;12.58;100.00;98503.66;5024370;28;20470;-79
2021/08/17 05:38:03;;;;;;;22.33;11.93;;;11.70;99.90;;;12.61;100.00;98495.41;5031681;28;20498;-79
2021/08/17 05:40:33;;;;;;;24.77;12.03;;;11.70;99.90;;;12.65;100.00;98505.53;5031730;28;20513;-79
2021/08/17 05:43:09;;;;;;;22.60;11.30;;;11.70;99.90;;;12.63;100.00;98503.09;5028073;28;20880;-79
2021/08/17 05:46:04;;;;;;;22.73;11.20;;;11.60;99.90;;;12.69;100.00;98506.78;5026055;28;20462;-79
2021/08/17 05:48:35;;;;;;;20.03;11.30;;;11.70;99.90;;;12.69;100.00;98506.78;5024631;28;20469;-79
2021/08/17 05:51:09;;;;;;;27.43;11.77;;;11.70;99.90;;;12.72;100.00;98527.38;5024203;28;20481;-79
2021/08/17 05:53:39;;;;;;;23.47;11.20;;;11.70;99.90;;;12.74;100.00;98509.66;5032672;28;20481;-79
2021/08/17 05:56:09;;;;;;;24.40;12.40;;;11.80;99.90;;;12.74;100.00;98513.06;5027853;28;20469;-79
2021/08/17 05:58:38;;;;;;;25.80;12.67;;;11.80;99.90;;;12.72;100.00;98530.00;5034176;28;20510;-79
2021/08/17 06:01:07;;;;;;;25.80;12.47;;;11.70;99.90;;;12.73;100.00;98523.75;5033388;28;20872;-79
2021/08/17 06:03:49;;;;;;;22.70;11.50;;;11.80;99.90;;;12.76;100.00;98528.63;5030925;28;20995;-79
2021/08/17 06:06:20;;;;;;;30.97;11.07;;;11.90;99.90;;;12.77;100.00;98530.28;5025245;28;20552;-79
2021/08/17 06:08:50;;;;;;;24.50;12.50;;;11.90;99.90;;;12.78;100.00;98537.13;5014034;28;20544;-79
2021/08/17 06:11:19;;;;;;;33.20;13.27;;;11.90;99.90;;;12.82;100.00;98548.88;5031122;28;20465;-79
2021/08/17 06:13:50;;;;;;;24.80;11.27;;;11.90;99.90;;;12.86;100.00;98550.94;5024370;28;20474;-79
2021/08/17 06:16:19;;;;;;;22.10;12.40;;;12.00;99.90;;;12.87;100.00;98551.75;5019758;28;20865;-79
2021/08/17 06:18:49;;;;;;;24.13;12.07;;;12.00;99.90;;;12.89;100.00;98549.75;5023052;28;20470;-79
2021/08/17 06:21:20;;;;;;;26.77;11.10;;;12.00;99.90;;;12.90;100.00;98551.38;5027347;28;20469;-79
2021/08/17 06:23:55;;;;;;;25.13;12.03;;;12.10;99.90;;;12.89;100.00;98555.81;5032486;28;20567;-79
2021/08/17 06:26:27;;;;;;;30.87;13.10;;;12.00;99.90;;;12.88;100.00;98553.34;5026687;28;20480;-79
2021/08/17 06:29:00;;;;;;;25.63;12.47;;;12.00;99.90;;;12.91;100.00;98550.38;5022433;28;20473;-79
2021/08/17 06:31:30;;;;;;;20.27;11.70;;;12.00;99.90;;;12.92;100.00;98549.34;5032575;28;20482;-79
2021/08/17 06:34:01;;;;;;;21.57;10.33;;;12.00;99.90;;;12.94;100.00;98550.00;5026671;28;20505;-80
2021/08/17 06:36:49;;;;;;;22.40;11.50;;;12.00;99.90;;;13.02;100.00;98547.22;5029255;28;20477;-79
2021/08/17 06:39:20;;;;;;;25.03;11.50;;;12.10;99.90;;;13.05;100.00;98550.28;5021938;28;20470;-79
2021/08/17 06:41:51;;;;;;;22.57;12.17;;;12.10;99.90;;;13.05;100.00;98550.28;5026789;28;20549;-80
2021/08/17 06:44:20;;;;;;;27.33;12.17;;;12.10;99.90;;;13.08;100.00;98549.09;5030281;28;21005;-80
2021/08/17 06:46:50;;;;;;;26.90;10.90;;;12.10;99.90;;;13.06;100.00;98541.41;5028560;28;20482;-79
2021/08/17 06:49:21;;;;;;;22.17;11.90;;;12.10;99.90;;;13.11;100.00;98543.50;5022850;28;20478;-79
2021/08/17 06:51:52;;;;;;;24.73;11.10;;;12.20;99.90;;;13.14;100.00;98544.91;5022232;28;20473;-80
2021/08/17 06:54:26;;;;;;;25.90;14.10;;;12.20;99.90;;;13.19;100.00;98545.97;5037942;28;20477;-79
2021/08/17 06:57:02;;;;;;;18.93;10.20;;;12.30;99.90;;;13.21;100.00;98543.16;5031979;28;20472;-79
2021/08/17 06:59:31;;;;;;;19.30;9.77;;;12.30;99.90;;;13.31;100.00;98547.06;5027541;28;20857;-79
2021/08/17 07:02:01;;;;;;;19.70;10.43;;;12.40;99.90;;;13.34;100.00;98541.44;5032902;28;20536;-79
2021/08/17 07:04:30;;;;;;;23.57;10.30;;;12.40;99.90;;;13.45;100.00;98551.41;5021882;28;20507;-79
2021/08/17 07:07:02;;;;;;;22.43;9.97;;;12.60;99.90;;;13.47;100.00;98549.38;5027672;28;20465;-80
2021/08/17 07:09:32;;;;;;;23.40;10.57;;;12.60;99.90;;;13.52;100.00;98547.00;5028693;28;20494;-79
2021/08/17 07:12:08;;;;;;;19.80;9.90;;;12.60;99.90;;;13.62;100.00;98546.66;5024807;28;20458;-79
2021/08/17 07:14:38;;;;;;;24.37;10.27;;;12.70;99.90;;;13.70;100.00;98543.06;5032699;28;20477;-79
2021/08/17 07:17:08;;;;;;;18.63;8.90;;;12.80;99.90;;;13.73;100.00;98550.56;5023095;28;21015;-79
2021/08/17 07:19:37;;;;;;;20.73;10.37;;;12.80;99.90;;;13.81;100.00;98540.72;5026692;28;20466;-79
2021/08/17 07:22:09;;;;;;;19.80;10.80;;;12.90;99.90;;;13.87;100.00;98541.72;5027148;28;20474;-79
2021/08/17 07:24:39;;;;;;;20.10;10.17;;;12.90;99.90;;;13.92;100.00;98541.94;5032562;28;20555;-79
2021/08/17 07:27:12;;;;;;;19.00;9.40;;;13.00;99.90;;;13.97;100.00;98544.81;5025125;28;20531;-79
2021/08/17 07:29:42;;;;;;;19.10;9.57;;;13.00;99.90;;;14.01;100.00;98540.78;5025539;28;20985;-79
2021/08/17 07:32:14;;;;;;;19.63;10.83;;;13.10;99.90;;;14.11;100.00;98535.97;5023090;28;20531;-80
2021/08/17 07:34:44;;;;;;;22.10;10.23;;;13.20;99.90;;;14.20;100.00;98540.03;5029190;28;20532;-79
2021/08/17 07:37:14;;;;;;;19.50;9.80;;;13.30;99.90;;;14.26;100.00;98544.53;5029732;28;20516;-79
2021/08/17 07:39:43;;;;;;;18.00;9.80;;;13.40;99.90;;;14.35;100.00;98543.34;5028583;28;20473;-79
2021/08/17 07:42:13;;;;;;;17.20;9.73;;;13.50;99.90;;;14.42;100.00;98543.38;5030921;28;20466;-80
2021/08/17 07:44:43;;;;;;;18.23;9.20;;;13.50;99.90;;;14.51;100.00;98542.16;5026022;28;20502;-79
2021/08/17 07:47:15;;;;;;;19.33;9.67;;;13.60;99.90;;;14.59;100.00;98537.53;5020910;28;20478;-79
2021/08/17 07:49:45;;;;;;;19.30;9.57;;;13.70;99.90;;;14.64;100.00;98541.38;5020780;28;20478;-79
2021/08/17 07:52:15;;;;;;;18.23;9.40;;;13.70;99.90;;;14.71;100.00;98547.47;5030923;28;20470;-80
2021/08/17 07:54:45;;;;;;;17.83;8.53;;;13.80;99.90;;;14.77;100.00;98552.75;5029175;28;20474;-80
2021/08/17 07:57:15;;;;;;;20.77;9.40;;;13.90;99.90;;;14.77;100.00;98557.19;5028595;28;20473;-80
2021/08/17 07:59:44;;;;;;;18.53;9.20;;;13.90;99.90;;;14.85;100.00;98559.63;5026335;28;20498;-79
2021/08/17 08:02:14;;;;;;;20.77;10.30;;;14.00;99.90;;;14.92;100.00;98556.00;5030205;28;20465;-80
2021/08/17 08:04:44;;;;;;;21.57;10.50;;;14.10;99.90;;;14.90;100.00;98558.00;5029632;28;21014;-79
2021/08/17 08:07:13;;;;;;;19.33;9.20;;;14.00;99.90;;;14.89;100.00;98560.88;5024223;28;20470;-79
2021/08/17 08:09:55;;;;;;;17.47;9.60;;;14.00;99.90;;;14.90;100.00;98573.00;5026149;28;20494;-79
2021/08/17 08:12:24;;;;;;;16.73;8.57;;;14.00;99.90;;;14.98;100.00;98576.25;5025654;28;20466;-80
2021/08/17 08:15:12;;;;;;;17.93;9.03;;;14.10;99.90;;;15.00;100.00;98570.78;5017941;28;20463;-79
2021/08/17 08:17:42;;;;;;;17.80;8.30;;;14.10;99.90;;;15.06;100.00;98556.81;5030291;28;20469;-80
2021/08/17 08:20:13;;;;;;;16.70;9.23;;;14.20;99.90;;;15.14;100.00;98551.31;5020418;28;21127;-80
2021/08/17 08:22:42;;;;;;;18.53;9.23;;;14.20;99.90;;;15.09;100.00;98554.59;5029129;28;20504;-79
2021/08/17 08:25:14;;;;;;;19.80;8.73;;;14.20;99.90;;;15.15;100.00;98555.59;5021813;28;20609;-79
2021/08/17 08:27:45;;;;;;;17.47;8.40;;;14.20;99.90;;;15.21;100.00;98565.31;5024270;28;21034;-80
2021/08/17 08:30:16;;;;;;;14.87;7.90;;;14.20;99.90;;;15.22;100.00;98556.41;5019884;28;20471;-80
2021/08/17 08:32:46;;;;;;;15.20;8.27;;;14.30;99.90;;;15.18;100.00;98535.91;5024804;28;20959;-80
2021/08/17 08:35:16;;;;;;;16.50;8.43;;;14.20;99.90;;;15.21;100.00;98533.69;5028775;28;20543;-80
2021/08/17 08:37:46;;;;;;;18.20;8.23;;;14.30;99.90;;;15.22;100.00;98524.78;5025544;28;20493;-80
2021/08/17 08:40:17;;;;;;;15.20;8.37;;;14.30;99.90;;;15.27;100.00;98521.53;5026005;28;20477;-80
2021/08/17 08:42:49;;;;;;;14.47;8.30;;;14.30;99.90;;;15.31;100.00;98518.28;5024033;28;20516;-80
2021/08/17 08:45:20;;;;;;;15.77;8.30;;;14.40;99.90;;;15.34;100.00;98536.31;5023181;28;20497;-79
2021/08/17 08:47:50;;;;;;;20.90;8.13;;;14.40;99.90;;;15.32;100.00;98546.25;5025583;28;20465;-80
2021/08/17 08:50:20;;;;;;;16.13;8.70;;;14.30;99.90;;;15.31;100.00;98539.34;5030730;28;20481;-80
2021/08/17 08:52:50;;;;;;;15.30;8.83;;;14.30;99.90;;;15.33;100.00;98547.88;5029241;28;20479;-80
2021/08/17 08:55:21;;;;;;;16.90;8.40;;;14.30;99.90;;;15.36;100.00;98536.94;5024813;28;20467;-80
2021/08/17 08:57:52;;;;;;;15.97;7.83;;;14.40;99.90;;;15.39;100.00;98548.88;5016971;28;21013;-80
2021/08/17 09:00:21;;;;;;;12.93;8.00;;;14.40;99.90;;;15.43;100.00;98545.63;5024400;28;20511;-79
2021/08/17 09:02:52;;;;;;;15.30;8.13;;;14.50;99.90;;;15.51;100.00;98534.09;5029008;28;20458;-79
2021/08/17 09:05:23;;;;;;;16.00;8.80;;;14.60;99.90;;;15.48;100.00;98545.84;5030557;28;20500;-80
2021/08/17 09:07:56;;;;;;;14.77;8.40;;;14.50;99.90;;;15.54;100.00;98560.03;5017305;28;20478;-79
2021/08/17 09:10:30;;;;;;;15.33;8.53;;;14.60;99.90;;;15.48;100.00;98564.28;5022972;28;20473;-79
2021/08/17 09:13:01;;;;;;;14.97;8.70;;;14.50;99.90;;;15.52;100.00;98569.97;5021677;28;20481;-80
2021/08/17 09:15:39;;;;;;;17.17;9.30;;;14.50;99.90;;;15.57;100.00;98564.91;5017996;28;20467;-80
2021/08/17 09:18:11;;;;;;;17.63;9.07;;;14.60;99.90;;;15.57;100.00;98563.06;5024679;28;20566;-79
2021/08/17 09:20:45;;;;;;;17.33;9.70;;;14.60;99.90;;;15.56;100.00;98552.72;5024492;28;20540;-80
2021/08/17 09:23:30;;;;;;;17.83;8.93;;;14.50;99.90;;;15.55;100.00;98559.81;5030224;28;20509;-79
2021/08/17 09:26:21;;;;;;;17.77;9.93;;;14.50;99.90;;;15.57;100.00;98555.16;5030543;28;20535;-80
2021/08/17 09:29:00;;;;;;;16.63;10.43;;;14.50;99.90;;;15.65;100.00;98556.78;5020553;28;20477;-80
2021/08/17 09:31:36;;;;;;;16.47;8.70;;;14.80;99.90;;;15.67;100.00;98564.47;5028469;28;20474;-80
2021/08/17 09:34:09;;;;;;;20.27;9.97;;;14.80;99.90;;;15.54;100.00;98545.03;5020618;28;20480;-80
2021/08/17 09:36:40;;;;;;;18.73;9.13;;;14.70;99.90;;;15.64;100.00;98543.78;5023754;28;20604;-79
2021/08/17 09:39:14;;;;;;;16.63;9.47;;;14.80;99.90;;;15.55;100.00;98544.00;5023716;28;20470;-80
2021/08/17 09:41:45;;;;;;;18.23;9.80;;;14.60;99.90;;;15.58;100.00;98538.31;5018069;28;20871;-80
2021/08/17 09:44:22;;;;;;;18.10;9.93;;;14.60;99.90;;;15.62;100.00;98546.63;5018101;28;20496;-80
2021/08/17 09:46:55;;;;;;;16.13;9.67;;;14.70;99.90;;;15.59;100.00;98539.94;5029488;28;20470;-79
2021/08/17 09:49:30;;;;;;;15.20;8.13;;;14.70;99.90;;;15.53;100.00;98532.06;5023463;28;20475;-80
2021/08/17 09:52:08;;;;;;;18.53;9.53;;;14.60;99.90;;;15.49;100.00;98525.56;5030301;28;20527;-82
2021/08/17 09:54:43;;;;;;;16.20;8.40;;;14.60;99.90;;;15.45;100.00;98522.50;5034094;28;20473;-80
2021/08/17 09:57:15;;;;;;;17.33;9.07;;;14.50;99.90;;;15.41;100.00;98531.84;5024849;28;20462;-80
2021/08/17 09:59:50;;;;;;;16.93;8.80;;;14.50;99.90;;;15.47;100.00;98530.22;5023959;28;20469;-79
2021/08/17 10:02:19;;;;;;;16.77;7.37;;;14.50;99.90;;;15.38;100.00;98528.78;5018109;28;20461;-79
2021/08/17 10:04:51;;;;;;;17.70;10.20;;;14.50;99.90;;;15.45;100.00;98530.41;5027035;28;20494;-79
2021/08/17 10:07:21;;;;;;;23.40;9.70;;;14.60;99.90;;;15.37;100.00;98522.75;5022004;28;20509;-79
2021/08/17 10:09:53;;;;;;;17.23;9.87;;;14.40;99.90;;;15.42;100.00;98535.28;5030392;28;21046;-79
2021/08/17 10:12:25;;;;;;;16.93;9.70;;;14.60;99.90;;;15.42;100.00;98530.81;5028281;28;20466;-79
2021/08/17 10:14:55;;;;;;;19.17;9.73;;;14.70;99.90;;;15.47;100.00;98536.31;5022746;28;20801;-80
2021/08/17 10:17:25;;;;;;;20.37;10.47;;;14.70;99.90;;;15.47;100.00;98531.03;5022892;28;20478;-80
2021/08/17 10:19:55;;;;;;;16.47;9.70;;;14.70;99.90;;;15.52;100.00;98528.59;5032301;28;20469;-79
2021/08/17 10:22:26;;;;;;;21.17;9.33;;;14.80;99.90;;;15.58;100.00;98519.06;5021759;28;20465;-80
2021/08/17 10:25:06;;;;;;;15.53;8.37;;;14.80;99.90;;;15.69;100.00;98521.03;5033406;28;20580;-80
2021/08/17 10:27:38;;;;;;;15.60;8.87;;;15.00;99.90;;;15.69;100.00;98525.53;5032681;28;21026;-79
2021/08/17 10:30:21;;;;;;;20.77;9.30;;;15.00;99.90;;;15.72;100.00;98510.09;5022598;28;20562;-79
2021/08/17 10:32:55;;;;;;;19.10;10.30;;;14.90;99.90;;;15.75;100.00;98508.88;5027344;28;20473;-79
2021/08/17 10:35:59;;;;;;;16.07;9.00;;;15.00;99.90;;;15.78;100.00;98504.00;5021525;28;20576;-80
2021/08/17 10:38:49;;;;;;;23.03;7.90;;;14.90;99.90;;;15.91;100.00;98495.22;5031293;28;20572;-79
2021/08/17 10:41:31;;;;;;;21.83;9.87;;;15.10;99.90;;;15.88;100.00;98493.81;5023958;28;20985;-80